sensor_id;sensor_type;location;lat;lon;timestamp;P1;durP1;ratioP1;P2;durP2;ratioP2
75220;SDS011;63802;53.232;6.570;2022-11-15T00:01:17;25.80;;;12.00;;
75220;SDS011;63802;53.232;6.570;2022-11-15T00:03:43;27.40;;;12.50;;
75220;SDS011;63802;53.232;6.570;2022-11-15T00:06:09;26.15;;;11.43;;
75220;SDS011;63802;53.232;6.570;2022-11-15T00:08:34;28.30;;;12.32;;
75220;SDS011;63802;53.232;6.570;2022-11-15T00:11:01;23.52;;;11.82;;
75220;SDS011;63802;53.232;6.570;2022-11-15T00:13:28;27.27;;;11.85;;
75220;SDS011;63802;53.232;6.570;2022-11-15T00:15:58;29.75;;;12.27;;
75220;SDS011;63802;53.232;6.570;2022-11-15T00:18:25;25.70;;;11.10;;
75220;SDS011;63802;53.232;6.570;2022-11-15T00:20:51;26.85;;;12.30;;
75220;SDS011;63802;53.232;6.570;2022-11-15T00:23:17;27.02;;;13.10;;
75220;SDS011;63802;53.232;6.570;2022-11-15T00:25:42;31.17;;;13.68;;
75220;SDS011;63802;53.232;6.570;2022-11-15T00:28:08;27.17;;;13.00;;
75220;SDS011;63802;53.232;6.570;2022-11-15T00:30:34;30.48;;;13.55;;
75220;SDS011;63802;53.232;6.570;2022-11-15T00:33:06;31.80;;;13.02;;
75220;SDS011;63802;53.232;6.570;2022-11-15T00:35:32;33.40;;;13.98;;
75220;SDS011;63802;53.232;6.570;2022-11-15T00:37:59;30.15;;;13.00;;
75220;SDS011;63802;53.232;6.570;2022-11-15T00:40:25;33.13;;;14.15;;
75220;SDS011;63802;53.232;6.570;2022-11-15T00:42:50;36.10;;;16.13;;
75220;SDS011;63802;53.232;6.570;2022-11-15T00:45:15;34.35;;;14.70;;
75220;SDS011;63802;53.232;6.570;2022-11-15T00:47:43;33.20;;;14.73;;
75220;SDS011;63802;53.232;6.570;2022-11-15T00:50:10;35.83;;;15.68;;
75220;SDS011;63802;53.232;6.570;2022-11-15T00:52:35;31.55;;;13.32;;
75220;SDS011;63802;53.232;6.570;2022-11-15T00:55:00;33.72;;;13.45;;
75220;SDS011;63802;53.232;6.570;2022-11-15T00:57:26;32.22;;;14.88;;
75220;SDS011;63802;53.232;6.570;2022-11-15T00:59:51;33.30;;;13.70;;
75220;SDS011;63802;53.232;6.570;2022-11-15T01:02:16;27.60;;;12.50;;
75220;SDS011;63802;53.232;6.570;2022-11-15T01:04:42;33.25;;;13.35;;
75220;SDS011;63802;53.232;6.570;2022-11-15T01:07:07;28.10;;;13.95;;
75220;SDS011;63802;53.232;6.570;2022-11-15T01:09:33;29.02;;;12.93;;
75220;SDS011;63802;53.232;6.570;2022-11-15T01:11:58;27.73;;;13.23;;
75220;SDS011;63802;53.232;6.570;2022-11-15T01:14:23;27.23;;;12.38;;
75220;SDS011;63802;53.232;6.570;2022-11-15T01:16:49;29.95;;;13.05;;
75220;SDS011;63802;53.232;6.570;2022-11-15T01:19:14;25.70;;;12.80;;
75220;SDS011;63802;53.232;6.570;2022-11-15T01:21:40;22.92;;;11.57;;
75220;SDS011;63802;53.232;6.570;2022-11-15T01:24:05;28.08;;;13.10;;
75220;SDS011;63802;53.232;6.570;2022-11-15T01:26:32;26.98;;;12.13;;
75220;SDS011;63802;53.232;6.570;2022-11-15T01:28:57;26.42;;;11.48;;
75220;SDS011;63802;53.232;6.570;2022-11-15T01:31:23;26.13;;;12.43;;
75220;SDS011;63802;53.232;6.570;2022-11-15T01:33:48;28.63;;;12.20;;
75220;SDS011;63802;53.232;6.570;2022-11-15T01:36:15;28.80;;;12.10;;
75220;SDS011;63802;53.232;6.570;2022-11-15T01:38:42;27.85;;;12.20;;
75220;SDS011;63802;53.232;6.570;2022-11-15T01:41:18;32.85;;;14.18;;
75220;SDS011;63802;53.232;6.570;2022-11-15T01:43:46;28.98;;;13.80;;
75220;SDS011;63802;53.232;6.570;2022-11-15T01:46:25;31.10;;;14.25;;
75220;SDS011;63802;53.232;6.570;2022-11-15T01:48:56;29.80;;;12.98;;
75220;SDS011;63802;53.232;6.570;2022-11-15T01:51:26;27.33;;;12.13;;
75220;SDS011;63802;53.232;6.570;2022-11-15T01:53:55;27.25;;;13.38;;
75220;SDS011;63802;53.232;6.570;2022-11-15T01:56:24;29.88;;;12.98;;
75220;SDS011;63802;53.232;6.570;2022-11-15T01:58:55;34.47;;;13.73;;
75220;SDS011;63802;53.232;6.570;2022-11-15T02:01:23;27.17;;;12.13;;
75220;SDS011;63802;53.232;6.570;2022-11-15T02:03:51;29.13;;;13.18;;
75220;SDS011;63802;53.232;6.570;2022-11-15T02:06:21;30.50;;;12.50;;
75220;SDS011;63802;53.232;6.570;2022-11-15T02:08:47;29.52;;;14.35;;
75220;SDS011;63802;53.232;6.570;2022-11-15T02:11:13;30.38;;;12.98;;
75220;SDS011;63802;53.232;6.570;2022-11-15T02:13:39;29.33;;;12.55;;
75220;SDS011;63802;53.232;6.570;2022-11-15T02:24:48;28.70;;;12.50;;
75220;SDS011;63802;53.232;6.570;2022-11-15T02:33:03;23.42;;;10.85;;
75220;SDS011;63802;53.232;6.570;2022-11-15T02:35:52;27.67;;;11.85;;
75220;SDS011;63802;53.232;6.570;2022-11-15T02:38:31;29.85;;;12.13;;
75220;SDS011;63802;53.232;6.570;2022-11-15T02:41:15;27.33;;;11.32;;
75220;SDS011;63802;53.232;6.570;2022-11-15T02:43:46;29.00;;;12.15;;
75220;SDS011;63802;53.232;6.570;2022-11-15T02:46:28;31.80;;;13.13;;
75220;SDS011;63802;53.232;6.570;2022-11-15T02:49:19;30.92;;;12.05;;
75220;SDS011;63802;53.232;6.570;2022-11-15T02:51:46;30.80;;;12.07;;
75220;SDS011;63802;53.232;6.570;2022-11-15T02:54:14;33.30;;;11.68;;
75220;SDS011;63802;53.232;6.570;2022-11-15T02:56:44;26.20;;;11.98;;
75220;SDS011;63802;53.232;6.570;2022-11-15T03:07:29;34.63;;;13.38;;
75220;SDS011;63802;53.232;6.570;2022-11-15T03:09:57;32.95;;;13.35;;
75220;SDS011;63802;53.232;6.570;2022-11-15T03:12:41;32.40;;;12.57;;
75220;SDS011;63802;53.232;6.570;2022-11-15T03:15:31;32.65;;;12.75;;
75220;SDS011;63802;53.232;6.570;2022-11-15T03:18:04;36.67;;;13.93;;
75220;SDS011;63802;53.232;6.570;2022-11-15T03:20:38;32.00;;;13.63;;
75220;SDS011;63802;53.232;6.570;2022-11-15T03:23:05;36.08;;;12.77;;
75220;SDS011;63802;53.232;6.570;2022-11-15T03:25:34;35.03;;;12.93;;
75220;SDS011;63802;53.232;6.570;2022-11-15T03:28:05;37.50;;;14.38;;
75220;SDS011;63802;53.232;6.570;2022-11-15T03:30:34;35.55;;;11.88;;
75220;SDS011;63802;53.232;6.570;2022-11-15T03:33:03;36.35;;;14.45;;
75220;SDS011;63802;53.232;6.570;2022-11-15T03:35:33;39.25;;;13.30;;
75220;SDS011;63802;53.232;6.570;2022-11-15T03:38:10;31.98;;;12.52;;
75220;SDS011;63802;53.232;6.570;2022-11-15T03:40:59;33.00;;;13.45;;
75220;SDS011;63802;53.232;6.570;2022-11-15T03:43:32;31.25;;;12.43;;
75220;SDS011;63802;53.232;6.570;2022-11-15T03:46:11;32.35;;;12.35;;
75220;SDS011;63802;53.232;6.570;2022-11-15T03:48:45;37.22;;;13.23;;
75220;SDS011;63802;53.232;6.570;2022-11-15T03:51:16;34.75;;;12.77;;
75220;SDS011;63802;53.232;6.570;2022-11-15T03:53:42;37.17;;;13.80;;
75220;SDS011;63802;53.232;6.570;2022-11-15T03:56:07;30.17;;;12.02;;
75220;SDS011;63802;53.232;6.570;2022-11-15T03:58:33;33.67;;;11.57;;
75220;SDS011;63802;53.232;6.570;2022-11-15T04:00:58;35.75;;;13.02;;
75220;SDS011;63802;53.232;6.570;2022-11-15T04:03:24;35.55;;;12.10;;
75220;SDS011;63802;53.232;6.570;2022-11-15T04:05:50;34.33;;;12.63;;
75220;SDS011;63802;53.232;6.570;2022-11-15T04:08:16;37.58;;;12.93;;
75220;SDS011;63802;53.232;6.570;2022-11-15T04:10:41;28.60;;;11.38;;
75220;SDS011;63802;53.232;6.570;2022-11-15T04:13:07;33.88;;;12.95;;
75220;SDS011;63802;53.232;6.570;2022-11-15T04:15:32;32.70;;;13.27;;
75220;SDS011;63802;53.232;6.570;2022-11-15T04:17:58;31.63;;;11.90;;
75220;SDS011;63802;53.232;6.570;2022-11-15T04:20:25;31.60;;;12.55;;
75220;SDS011;63802;53.232;6.570;2022-11-15T04:23:11;33.22;;;11.90;;
75220;SDS011;63802;53.232;6.570;2022-11-15T04:26:04;34.85;;;13.82;;
75220;SDS011;63802;53.232;6.570;2022-11-15T04:28:32;29.95;;;12.38;;
75220;SDS011;63802;53.232;6.570;2022-11-15T04:30:57;38.67;;;13.90;;
75220;SDS011;63802;53.232;6.570;2022-11-15T04:33:23;37.92;;;13.63;;
75220;SDS011;63802;53.232;6.570;2022-11-15T04:35:49;39.38;;;14.27;;
75220;SDS011;63802;53.232;6.570;2022-11-15T04:38:33;32.50;;;12.93;;
75220;SDS011;63802;53.232;6.570;2022-11-15T04:40:59;36.58;;;13.73;;
75220;SDS011;63802;53.232;6.570;2022-11-15T04:43:24;39.80;;;14.90;;
75220;SDS011;63802;53.232;6.570;2022-11-15T04:45:50;38.70;;;13.45;;
75220;SDS011;63802;53.232;6.570;2022-11-15T04:48:15;31.33;;;12.15;;
75220;SDS011;63802;53.232;6.570;2022-11-15T04:50:41;36.95;;;13.88;;
75220;SDS011;63802;53.232;6.570;2022-11-15T04:53:07;39.97;;;12.63;;
75220;SDS011;63802;53.232;6.570;2022-11-15T04:55:32;39.10;;;13.80;;
75220;SDS011;63802;53.232;6.570;2022-11-15T04:57:58;43.95;;;14.40;;
75220;SDS011;63802;53.232;6.570;2022-11-15T05:00:26;35.85;;;13.90;;
75220;SDS011;63802;53.232;6.570;2022-11-15T05:02:52;39.45;;;13.65;;
75220;SDS011;63802;53.232;6.570;2022-11-15T05:05:36;39.38;;;13.10;;
75220;SDS011;63802;53.232;6.570;2022-11-15T05:08:02;44.28;;;14.35;;
75220;SDS011;63802;53.232;6.570;2022-11-15T05:10:28;42.47;;;12.13;;
75220;SDS011;63802;53.232;6.570;2022-11-15T05:12:53;40.50;;;14.40;;
75220;SDS011;63802;53.232;6.570;2022-11-15T05:15:19;38.17;;;14.90;;
75220;SDS011;63802;53.232;6.570;2022-11-15T05:17:44;39.78;;;13.05;;
75220;SDS011;63802;53.232;6.570;2022-11-15T05:20:10;36.28;;;13.68;;
75220;SDS011;63802;53.232;6.570;2022-11-15T05:22:37;47.97;;;15.63;;
75220;SDS011;63802;53.232;6.570;2022-11-15T05:25:03;43.33;;;14.93;;
75220;SDS011;63802;53.232;6.570;2022-11-15T05:27:29;43.88;;;15.00;;
75220;SDS011;63802;53.232;6.570;2022-11-15T05:29:55;55.42;;;17.15;;
75220;SDS011;63802;53.232;6.570;2022-11-15T05:32:20;51.55;;;17.15;;
75220;SDS011;63802;53.232;6.570;2022-11-15T05:34:46;51.85;;;16.33;;
75220;SDS011;63802;53.232;6.570;2022-11-15T05:37:12;39.13;;;14.93;;
75220;SDS011;63802;53.232;6.570;2022-11-15T05:39:38;50.10;;;16.05;;
75220;SDS011;63802;53.232;6.570;2022-11-15T05:42:06;54.80;;;17.42;;
75220;SDS011;63802;53.232;6.570;2022-11-15T05:44:33;48.22;;;18.15;;
75220;SDS011;63802;53.232;6.570;2022-11-15T05:47:01;52.78;;;17.60;;
75220;SDS011;63802;53.232;6.570;2022-11-15T05:49:31;56.28;;;17.85;;
75220;SDS011;63802;53.232;6.570;2022-11-15T05:52:02;60.25;;;17.85;;
75220;SDS011;63802;53.232;6.570;2022-11-15T05:54:30;53.78;;;19.83;;
75220;SDS011;63802;53.232;6.570;2022-11-15T05:56:58;63.70;;;18.77;;
75220;SDS011;63802;53.232;6.570;2022-11-15T05:59:24;60.80;;;18.63;;
75220;SDS011;63802;53.232;6.570;2022-11-15T06:01:50;58.15;;;19.65;;
75220;SDS011;63802;53.232;6.570;2022-11-15T06:04:16;63.00;;;19.30;;
75220;SDS011;63802;53.232;6.570;2022-11-15T06:06:41;60.83;;;19.25;;
75220;SDS011;63802;53.232;6.570;2022-11-15T06:09:06;61.88;;;18.98;;
75220;SDS011;63802;53.232;6.570;2022-11-15T06:11:32;77.43;;;20.95;;
75220;SDS011;63802;53.232;6.570;2022-11-15T06:13:57;59.60;;;19.67;;
75220;SDS011;63802;53.232;6.570;2022-11-15T06:16:23;62.65;;;20.27;;
75220;SDS011;63802;53.232;6.570;2022-11-15T06:18:48;62.10;;;21.30;;
75220;SDS011;63802;53.232;6.570;2022-11-15T06:21:14;67.60;;;21.02;;
75220;SDS011;63802;53.232;6.570;2022-11-15T06:23:39;61.67;;;19.45;;
75220;SDS011;63802;53.232;6.570;2022-11-15T06:26:05;66.63;;;20.92;;
75220;SDS011;63802;53.232;6.570;2022-11-15T06:28:30;66.97;;;19.83;;
75220;SDS011;63802;53.232;6.570;2022-11-15T06:31:04;68.03;;;22.20;;
75220;SDS011;63802;53.232;6.570;2022-11-15T06:33:33;77.45;;;21.02;;
75220;SDS011;63802;53.232;6.570;2022-11-15T06:36:06;65.43;;;20.38;;
75220;SDS011;63802;53.232;6.570;2022-11-15T06:38:34;64.03;;;19.77;;
75220;SDS011;63802;53.232;6.570;2022-11-15T06:41:04;58.22;;;20.95;;
75220;SDS011;63802;53.232;6.570;2022-11-15T06:43:31;65.78;;;20.83;;
75220;SDS011;63802;53.232;6.570;2022-11-15T06:46:03;67.82;;;21.90;;
75220;SDS011;63802;53.232;6.570;2022-11-15T06:48:29;70.97;;;22.67;;
75220;SDS011;63802;53.232;6.570;2022-11-15T06:50:57;69.57;;;22.25;;
75220;SDS011;63802;53.232;6.570;2022-11-15T06:53:26;66.55;;;20.90;;
75220;SDS011;63802;53.232;6.570;2022-11-15T06:55:53;71.70;;;22.33;;
75220;SDS011;63802;53.232;6.570;2022-11-15T06:58:20;63.88;;;22.48;;
75220;SDS011;63802;53.232;6.570;2022-11-15T07:00:46;63.90;;;20.65;;
75220;SDS011;63802;53.232;6.570;2022-11-15T07:03:12;68.50;;;22.80;;
75220;SDS011;63802;53.232;6.570;2022-11-15T07:05:37;62.22;;;21.70;;
75220;SDS011;63802;53.232;6.570;2022-11-15T07:08:06;59.90;;;21.73;;
75220;SDS011;63802;53.232;6.570;2022-11-15T07:10:31;55.03;;;19.08;;
75220;SDS011;63802;53.232;6.570;2022-11-15T07:12:57;68.25;;;22.33;;
75220;SDS011;63802;53.232;6.570;2022-11-15T07:15:23;74.88;;;22.55;;
75220;SDS011;63802;53.232;6.570;2022-11-15T07:17:50;70.97;;;21.67;;
75220;SDS011;63802;53.232;6.570;2022-11-15T07:20:16;62.28;;;21.45;;
75220;SDS011;63802;53.232;6.570;2022-11-15T07:22:42;60.58;;;21.77;;
75220;SDS011;63802;53.232;6.570;2022-11-15T07:25:10;65.55;;;24.08;;
75220;SDS011;63802;53.232;6.570;2022-11-15T07:27:35;62.40;;;21.38;;
75220;SDS011;63802;53.232;6.570;2022-11-15T07:30:01;59.15;;;20.33;;
75220;SDS011;63802;53.232;6.570;2022-11-15T07:32:28;58.50;;;21.85;;
75220;SDS011;63802;53.232;6.570;2022-11-15T07:34:53;64.00;;;21.48;;
75220;SDS011;63802;53.232;6.570;2022-11-15T07:37:19;67.85;;;20.88;;
75220;SDS011;63802;53.232;6.570;2022-11-15T07:39:45;65.90;;;21.23;;
75220;SDS011;63802;53.232;6.570;2022-11-15T07:42:11;58.10;;;20.88;;
75220;SDS011;63802;53.232;6.570;2022-11-15T07:44:55;62.17;;;20.45;;
75220;SDS011;63802;53.232;6.570;2022-11-15T07:47:20;59.08;;;21.05;;
75220;SDS011;63802;53.232;6.570;2022-11-15T07:49:46;59.08;;;19.30;;
75220;SDS011;63802;53.232;6.570;2022-11-15T07:52:12;62.75;;;20.05;;
75220;SDS011;63802;53.232;6.570;2022-11-15T07:54:38;55.63;;;20.00;;
75220;SDS011;63802;53.232;6.570;2022-11-15T07:57:03;52.20;;;19.27;;
75220;SDS011;63802;53.232;6.570;2022-11-15T07:59:29;55.08;;;19.65;;
75220;SDS011;63802;53.232;6.570;2022-11-15T08:01:54;55.35;;;19.83;;
75220;SDS011;63802;53.232;6.570;2022-11-15T08:04:20;49.85;;;18.75;;
75220;SDS011;63802;53.232;6.570;2022-11-15T08:06:46;44.75;;;17.67;;
75220;SDS011;63802;53.232;6.570;2022-11-15T08:09:12;41.83;;;18.33;;
75220;SDS011;63802;53.232;6.570;2022-11-15T08:11:37;45.05;;;18.63;;
75220;SDS011;63802;53.232;6.570;2022-11-15T08:14:02;54.42;;;18.90;;
75220;SDS011;63802;53.232;6.570;2022-11-15T08:16:28;47.15;;;16.95;;
75220;SDS011;63802;53.232;6.570;2022-11-15T08:18:53;45.08;;;17.88;;
75220;SDS011;63802;53.232;6.570;2022-11-15T08:21:19;46.40;;;17.70;;
75220;SDS011;63802;53.232;6.570;2022-11-15T08:23:46;43.33;;;18.85;;
75220;SDS011;63802;53.232;6.570;2022-11-15T08:26:11;38.60;;;15.82;;
75220;SDS011;63802;53.232;6.570;2022-11-15T08:28:37;45.42;;;17.08;;
75220;SDS011;63802;53.232;6.570;2022-11-15T08:31:03;45.33;;;16.77;;
75220;SDS011;63802;53.232;6.570;2022-11-15T08:33:29;41.60;;;15.75;;
75220;SDS011;63802;53.232;6.570;2022-11-15T08:35:59;38.55;;;16.55;;
75220;SDS011;63802;53.232;6.570;2022-11-15T08:38:25;36.55;;;15.95;;
75220;SDS011;63802;53.232;6.570;2022-11-15T08:40:53;44.17;;;17.08;;
75220;SDS011;63802;53.232;6.570;2022-11-15T08:43:26;40.47;;;16.90;;
75220;SDS011;63802;53.232;6.570;2022-11-15T08:45:51;37.38;;;15.70;;
75220;SDS011;63802;53.232;6.570;2022-11-15T08:48:20;37.70;;;15.80;;
75220;SDS011;63802;53.232;6.570;2022-11-15T08:50:46;34.53;;;15.05;;
75220;SDS011;63802;53.232;6.570;2022-11-15T08:53:12;37.50;;;14.55;;
75220;SDS011;63802;53.232;6.570;2022-11-15T08:55:38;41.58;;;14.80;;
75220;SDS011;63802;53.232;6.570;2022-11-15T08:58:05;32.17;;;14.10;;
75220;SDS011;63802;53.232;6.570;2022-11-15T09:00:30;35.35;;;15.43;;
75220;SDS011;63802;53.232;6.570;2022-11-15T09:02:57;32.20;;;14.43;;
75220;SDS011;63802;53.232;6.570;2022-11-15T09:05:23;38.10;;;14.88;;
75220;SDS011;63802;53.232;6.570;2022-11-15T09:07:52;29.90;;;13.50;;
75220;SDS011;63802;53.232;6.570;2022-11-15T09:10:22;30.30;;;13.43;;
75220;SDS011;63802;53.232;6.570;2022-11-15T09:12:47;30.67;;;12.70;;
75220;SDS011;63802;53.232;6.570;2022-11-15T09:15:13;32.17;;;12.57;;
75220;SDS011;63802;53.232;6.570;2022-11-15T09:17:39;32.08;;;13.13;;
75220;SDS011;63802;53.232;6.570;2022-11-15T09:20:08;28.10;;;12.77;;
75220;SDS011;63802;53.232;6.570;2022-11-15T09:22:34;26.85;;;11.63;;
75220;SDS011;63802;53.232;6.570;2022-11-15T09:25:01;26.00;;;11.90;;
75220;SDS011;63802;53.232;6.570;2022-11-15T09:27:28;30.77;;;12.02;;
75220;SDS011;63802;53.232;6.570;2022-11-15T09:29:55;25.42;;;12.07;;
75220;SDS011;63802;53.232;6.570;2022-11-15T09:32:20;27.00;;;11.40;;
75220;SDS011;63802;53.232;6.570;2022-11-15T09:34:47;25.65;;;11.63;;
75220;SDS011;63802;53.232;6.570;2022-11-15T09:37:13;27.58;;;12.18;;
75220;SDS011;63802;53.232;6.570;2022-11-15T09:39:38;22.27;;;11.68;;
75220;SDS011;63802;53.232;6.570;2022-11-15T09:47:38;24.80;;;11.82;;
75220;SDS011;63802;53.232;6.570;2022-11-15T09:50:28;22.98;;;11.10;;
75220;SDS011;63802;53.232;6.570;2022-11-15T09:52:59;28.02;;;11.65;;
75220;SDS011;63802;53.232;6.570;2022-11-15T09:55:29;25.25;;;11.02;;
75220;SDS011;63802;53.232;6.570;2022-11-15T09:58:16;23.00;;;11.13;;
75220;SDS011;63802;53.232;6.570;2022-11-15T10:00:51;25.58;;;11.15;;
75220;SDS011;63802;53.232;6.570;2022-11-15T10:05:54;25.02;;;11.23;;
75220;SDS011;63802;53.232;6.570;2022-11-15T10:09:09;26.00;;;10.68;;
75220;SDS011;63802;53.232;6.570;2022-11-15T10:11:27;25.42;;;11.43;;
75220;SDS011;63802;53.232;6.570;2022-11-15T10:13:58;29.00;;;10.85;;
75220;SDS011;63802;53.232;6.570;2022-11-15T10:18:55;25.35;;;11.45;;
75220;SDS011;63802;53.232;6.570;2022-11-15T10:21:51;20.80;;;10.43;;
75220;SDS011;63802;53.232;6.570;2022-11-15T10:24:15;22.17;;;10.68;;
75220;SDS011;63802;53.232;6.570;2022-11-15T10:26:48;25.05;;;10.57;;
75220;SDS011;63802;53.232;6.570;2022-11-15T10:29:20;20.00;;;9.47;;
75220;SDS011;63802;53.232;6.570;2022-11-15T10:31:47;20.85;;;9.27;;
75220;SDS011;63802;53.232;6.570;2022-11-15T10:34:17;20.85;;;10.02;;
75220;SDS011;63802;53.232;6.570;2022-11-15T10:36:45;21.20;;;10.82;;
75220;SDS011;63802;53.232;6.570;2022-11-15T10:39:18;24.13;;;10.10;;
75220;SDS011;63802;53.232;6.570;2022-11-15T10:41:44;19.75;;;10.10;;
75220;SDS011;63802;53.232;6.570;2022-11-15T10:44:11;22.77;;;10.00;;
75220;SDS011;63802;53.232;6.570;2022-11-15T10:47:05;19.73;;;9.70;;
75220;SDS011;63802;53.232;6.570;2022-11-15T10:49:32;21.98;;;9.93;;
75220;SDS011;63802;53.232;6.570;2022-11-15T10:54:47;18.42;;;9.27;;
75220;SDS011;63802;53.232;6.570;2022-11-15T10:57:21;22.80;;;9.52;;
75220;SDS011;63802;53.232;6.570;2022-11-15T10:59:49;20.40;;;9.82;;
75220;SDS011;63802;53.232;6.570;2022-11-15T11:05:24;20.30;;;9.70;;
75220;SDS011;63802;53.232;6.570;2022-11-15T11:07:57;20.13;;;9.90;;
75220;SDS011;63802;53.232;6.570;2022-11-15T11:12:52;20.88;;;9.32;;
75220;SDS011;63802;53.232;6.570;2022-11-15T11:15:18;22.35;;;10.65;;
75220;SDS011;63802;53.232;6.570;2022-11-15T11:28:50;21.30;;;11.35;;
75220;SDS011;63802;53.232;6.570;2022-11-15T11:31:28;19.50;;;10.10;;
75220;SDS011;63802;53.232;6.570;2022-11-15T11:50:39;16.17;;;8.00;;
75220;SDS011;63802;53.232;6.570;2022-11-15T11:53:18;17.02;;;8.25;;
75220;SDS011;63802;53.232;6.570;2022-11-15T11:55:54;17.17;;;7.87;;
75220;SDS011;63802;53.232;6.570;2022-11-15T12:08:57;17.77;;;7.50;;
75220;SDS011;63802;53.232;6.570;2022-11-15T12:14:45;14.35;;;6.55;;
75220;SDS011;63802;53.232;6.570;2022-11-15T12:17:16;15.30;;;6.93;;
75220;SDS011;63802;53.232;6.570;2022-11-15T12:19:46;13.13;;;6.72;;
75220;SDS011;63802;53.232;6.570;2022-11-15T12:24:49;14.00;;;6.50;;
75220;SDS011;63802;53.232;6.570;2022-11-15T12:27:26;11.23;;;5.80;;
75220;SDS011;63802;53.232;6.570;2022-11-15T12:29:56;14.90;;;5.47;;
75220;SDS011;63802;53.232;6.570;2022-11-15T12:32:29;11.10;;;5.05;;
75220;SDS011;63802;53.232;6.570;2022-11-15T12:34:58;10.77;;;5.45;;
75220;SDS011;63802;53.232;6.570;2022-11-15T12:42:35;12.32;;;5.53;;
75220;SDS011;63802;53.232;6.570;2022-11-15T12:45:23;9.43;;;5.32;;
75220;SDS011;63802;53.232;6.570;2022-11-15T12:56:33;10.90;;;4.75;;
75220;SDS011;63802;53.232;6.570;2022-11-15T13:06:56;9.73;;;4.10;;
75220;SDS011;63802;53.232;6.570;2022-11-15T13:12:00;13.60;;;4.25;;
75220;SDS011;63802;53.232;6.570;2022-11-15T13:17:02;12.48;;;3.90;;
75220;SDS011;63802;53.232;6.570;2022-11-15T13:19:38;7.20;;;3.38;;
75220;SDS011;63802;53.232;6.570;2022-11-15T13:22:04;9.05;;;3.28;;
75220;SDS011;63802;53.232;6.570;2022-11-15T13:24:55;5.43;;;2.90;;
75220;SDS011;63802;53.232;6.570;2022-11-15T13:27:21;6.45;;;3.30;;
75220;SDS011;63802;53.232;6.570;2022-11-15T13:29:47;5.80;;;3.30;;
75220;SDS011;63802;53.232;6.570;2022-11-15T13:32:13;10.27;;;3.50;;
75220;SDS011;63802;53.232;6.570;2022-11-15T13:34:48;8.65;;;3.67;;
75220;SDS011;63802;53.232;6.570;2022-11-15T13:37:39;6.47;;;3.50;;
75220;SDS011;63802;53.232;6.570;2022-11-15T13:40:15;8.77;;;3.17;;
75220;SDS011;63802;53.232;6.570;2022-11-15T13:42:44;6.43;;;3.63;;
75220;SDS011;63802;53.232;6.570;2022-11-15T13:45:12;7.22;;;3.67;;
75220;SDS011;63802;53.232;6.570;2022-11-15T13:47:42;11.82;;;3.53;;
75220;SDS011;63802;53.232;6.570;2022-11-15T13:50:11;7.03;;;3.35;;
75220;SDS011;63802;53.232;6.570;2022-11-15T13:52:39;9.65;;;3.70;;
75220;SDS011;63802;53.232;6.570;2022-11-15T14:02:50;7.82;;;3.15;;
75220;SDS011;63802;53.232;6.570;2022-11-15T14:05:18;5.10;;;2.92;;
75220;SDS011;63802;53.232;6.570;2022-11-15T14:08:00;6.22;;;2.95;;
75220;SDS011;63802;53.232;6.570;2022-11-15T14:10:45;10.68;;;4.32;;
75220;SDS011;63802;53.232;6.570;2022-11-15T14:13:27;6.53;;;3.08;;
75220;SDS011;63802;53.232;6.570;2022-11-15T14:15:54;10.90;;;3.38;;
75220;SDS011;63802;53.232;6.570;2022-11-15T14:18:41;6.85;;;3.00;;
75220;SDS011;63802;53.232;6.570;2022-11-15T14:21:09;7.78;;;3.92;;
75220;SDS011;63802;53.232;6.570;2022-11-15T14:23:35;7.70;;;3.47;;
75220;SDS011;63802;53.232;6.570;2022-11-15T14:26:01;8.68;;;3.45;;
75220;SDS011;63802;53.232;6.570;2022-11-15T14:30:53;7.55;;;3.97;;
75220;SDS011;63802;53.232;6.570;2022-11-15T14:33:23;14.10;;;3.80;;
75220;SDS011;63802;53.232;6.570;2022-11-15T14:35:54;9.20;;;3.97;;
75220;SDS011;63802;53.232;6.570;2022-11-15T14:38:22;9.10;;;3.83;;
75220;SDS011;63802;53.232;6.570;2022-11-15T14:40:48;9.27;;;3.78;;
75220;SDS011;63802;53.232;6.570;2022-11-15T14:43:14;7.72;;;3.70;;
75220;SDS011;63802;53.232;6.570;2022-11-15T14:45:40;7.93;;;3.63;;
75220;SDS011;63802;53.232;6.570;2022-11-15T14:48:05;6.63;;;3.25;;
75220;SDS011;63802;53.232;6.570;2022-11-15T14:50:31;5.63;;;3.05;;
75220;SDS011;63802;53.232;6.570;2022-11-15T14:53:00;8.02;;;3.50;;
75220;SDS011;63802;53.232;6.570;2022-11-15T14:55:27;8.32;;;3.30;;
75220;SDS011;63802;53.232;6.570;2022-11-15T14:57:56;8.77;;;3.65;;
75220;SDS011;63802;53.232;6.570;2022-11-15T15:00:22;7.60;;;2.70;;
75220;SDS011;63802;53.232;6.570;2022-11-15T15:02:48;5.35;;;3.00;;
75220;SDS011;63802;53.232;6.570;2022-11-15T15:07:49;8.48;;;3.40;;
75220;SDS011;63802;53.232;6.570;2022-11-15T15:10:16;9.55;;;3.35;;
75220;SDS011;63802;53.232;6.570;2022-11-15T15:12:42;6.53;;;2.90;;
75220;SDS011;63802;53.232;6.570;2022-11-15T15:15:12;6.22;;;3.05;;
75220;SDS011;63802;53.232;6.570;2022-11-15T15:17:40;6.85;;;3.55;;
75220;SDS011;63802;53.232;6.570;2022-11-15T15:20:05;8.48;;;3.15;;
75220;SDS011;63802;53.232;6.570;2022-11-15T15:22:31;6.28;;;3.38;;
75220;SDS011;63802;53.232;6.570;2022-11-15T15:24:57;7.13;;;3.58;;
75220;SDS011;63802;53.232;6.570;2022-11-15T15:27:22;11.23;;;4.18;;
75220;SDS011;63802;53.232;6.570;2022-11-15T15:29:48;10.63;;;4.43;;
75220;SDS011;63802;53.232;6.570;2022-11-15T15:32:13;9.77;;;4.63;;
75220;SDS011;63802;53.232;6.570;2022-11-15T15:34:38;10.85;;;4.43;;
75220;SDS011;63802;53.232;6.570;2022-11-15T15:37:19;11.13;;;3.92;;
75220;SDS011;63802;53.232;6.570;2022-11-15T15:39:48;11.20;;;4.03;;
75220;SDS011;63802;53.232;6.570;2022-11-15T15:42:14;10.65;;;3.97;;
75220;SDS011;63802;53.232;6.570;2022-11-15T15:44:40;8.30;;;3.83;;
75220;SDS011;63802;53.232;6.570;2022-11-15T15:47:15;9.15;;;3.97;;
75220;SDS011;63802;53.232;6.570;2022-11-15T15:49:46;7.35;;;3.63;;
75220;SDS011;63802;53.232;6.570;2022-11-15T15:52:13;6.25;;;3.78;;
75220;SDS011;63802;53.232;6.570;2022-11-15T15:54:38;7.95;;;3.90;;
75220;SDS011;63802;53.232;6.570;2022-11-15T15:57:05;7.72;;;3.70;;
75220;SDS011;63802;53.232;6.570;2022-11-15T15:59:31;8.50;;;3.53;;
75220;SDS011;63802;53.232;6.570;2022-11-15T16:01:56;8.95;;;3.90;;
75220;SDS011;63802;53.232;6.570;2022-11-15T16:04:21;5.63;;;3.58;;
75220;SDS011;63802;53.232;6.570;2022-11-15T16:06:47;8.95;;;3.80;;
75220;SDS011;63802;53.232;6.570;2022-11-15T16:09:15;7.60;;;3.92;;
75220;SDS011;63802;53.232;6.570;2022-11-15T16:11:45;9.45;;;4.47;;
75220;SDS011;63802;53.232;6.570;2022-11-15T16:14:11;8.40;;;3.90;;
75220;SDS011;63802;53.232;6.570;2022-11-15T16:16:37;9.43;;;4.93;;
75220;SDS011;63802;53.232;6.570;2022-11-15T16:19:03;12.48;;;4.38;;
75220;SDS011;63802;53.232;6.570;2022-11-15T16:21:29;7.82;;;4.50;;
75220;SDS011;63802;53.232;6.570;2022-11-15T16:23:55;9.02;;;4.07;;
75220;SDS011;63802;53.232;6.570;2022-11-15T16:26:21;9.50;;;4.65;;
75220;SDS011;63802;53.232;6.570;2022-11-15T16:28:50;12.63;;;4.45;;
75220;SDS011;63802;53.232;6.570;2022-11-15T16:31:16;10.38;;;4.70;;
75220;SDS011;63802;53.232;6.570;2022-11-15T16:33:43;9.38;;;4.80;;
75220;SDS011;63802;53.232;6.570;2022-11-15T16:36:20;14.68;;;4.63;;
75220;SDS011;63802;53.232;6.570;2022-11-15T16:38:47;9.02;;;4.38;;
75220;SDS011;63802;53.232;6.570;2022-11-15T16:41:13;8.20;;;4.22;;
75220;SDS011;63802;53.232;6.570;2022-11-15T16:43:39;8.35;;;4.50;;